Time;durP1;ratioP1;P1;durP2;ratioP2;P2;SDS_P1;SDS_P2;PMS_P1;PMS_P2;Temp;Humidity;BMP_temperature;BMP_pressure;BME280_temperature;BME280_humidity;BME280_pressure;Samples;Min_cycle;Max_cycle;Signal;HPM_P1;HPM_P2
2021/01/26 00:00:27;;;;;;;5.50;2.00;;;7.30;75.80;;;;;;5072215;28;20028;-68
2021/01/26 00:02:53;;;;;;;9.63;2.35;;;7.30;75.60;;;;;;5070778;28;20033;-68
2021/01/26 00:05:18;;;;;;;8.18;2.80;;;7.40;75.30;;;;;;5041971;28;20049;-68
2021/01/26 00:07:44;;;;;;;13.67;2.57;;;7.30;75.20;;;;;;5035977;28;20489;-68
2021/01/26 00:10:11;;;;;;;7.03;1.90;;;7.30;75.60;;;;;;5034311;28;20104;-67
2021/01/26 00:12:37;;;;;;;13.80;2.97;;;7.30;75.80;;;;;;5052519;28;20036;-68
2021/01/26 00:15:05;;;;;;;9.13;2.10;;;7.30;76.00;;;;;;5052535;28;20032;-68
2021/01/26 00:17:31;;;;;;;9.35;2.40;;;7.30;76.30;;;;;;5041789;28;20037;-68
2021/01/26 00:19:56;;;;;;;7.13;2.90;;;7.30;76.40;;;;;;5049372;28;20542;-69
2021/01/26 00:22:22;;;;;;;8.48;2.42;;;7.30;76.60;;;;;;5048059;28;20067;-68
2021/01/26 00:24:47;;;;;;;7.03;2.50;;;7.30;76.70;;;;;;5033393;28;20484;-68
2021/01/26 00:27:13;;;;;;;7.57;2.00;;;7.30;76.70;;;;;;5041956;28;20034;-68
2021/01/26 00:29:39;;;;;;;7.07;2.15;;;7.30;76.90;;;;;;5032355;28;20063;-71
2021/01/26 00:32:05;;;;;;;9.95;3.40;;;7.30;76.80;;;;;;5051954;28;20041;-74
2021/01/26 00:34:31;;;;;;;12.63;3.97;;;7.40;76.70;;;;;;5050690;28;20080;-68
2021/01/26 00:36:56;;;;;;;11.47;2.57;;;7.30;76.60;;;;;;5017534;28;20126;-68
2021/01/26 00:39:23;;;;;;;10.60;3.00;;;7.30;76.60;;;;;;5033756;28;20060;-70
2021/01/26 00:41:49;;;;;;;9.13;2.63;;;7.30;76.60;;;;;;5008196;28;20479;-68
2021/01/26 00:44:15;;;;;;;8.80;2.40;;;7.30;76.70;;;;;;5051709;28;20115;-67
2021/01/26 00:46:41;;;;;;;8.02;2.97;;;7.20;76.70;;;;;;5034088;28;20104;-69
2021/01/26 00:49:07;;;;;;;7.77;2.73;;;7.20;76.90;;;;;;5047280;28;20120;-68
2021/01/26 00:51:32;;;;;;;5.20;2.23;;;7.20;77.00;;;;;;5051226;28;20449;-68
2021/01/26 00:53:58;;;;;;;5.65;2.58;;;7.20;76.90;;;;;;5051128;28;20112;-68
2021/01/26 00:56:24;;;;;;;9.60;3.10;;;7.20;76.70;;;;;;5031885;28;20040;-68
2021/01/26 00:58:50;;;;;;;8.77;3.05;;;7.20;76.80;;;;;;5049519;28;20032;-68
2021/01/26 01:01:15;;;;;;;9.37;2.93;;;7.20;76.90;;;;;;5029148;28;20467;-68
2021/01/26 01:03:41;;;;;;;13.10;2.70;;;7.20;76.80;;;;;;5050650;28;20416;-69
2021/01/26 01:06:07;;;;;;;12.43;3.63;;;7.20;76.50;;;;;;5039454;28;20040;-68
2021/01/26 01:08:32;;;;;;;7.82;2.20;;;7.20;76.20;;;;;;5033256;28;20464;-68
2021/01/26 01:10:58;;;;;;;10.63;2.83;;;7.20;76.10;;;;;;5040874;28;20033;-68
2021/01/26 01:13:24;;;;;;;5.60;2.10;;;7.20;76.20;;;;;;5046894;28;20132;-69
2021/01/26 01:15:50;;;;;;;6.85;1.73;;;7.20;76.00;;;;;;5051385;28;20025;-68
2021/01/26 01:18:16;;;;;;;7.90;2.93;;;7.20;75.70;;;;;;5051175;28;20033;-72
2021/01/26 01:20:41;;;;;;;7.20;1.80;;;7.20;75.50;;;;;;5027972;28;20032;-68
2021/01/26 01:23:07;;;;;;;6.80;2.30;;;7.20;75.50;;;;;;5037643;28;20029;-69
2021/01/26 01:25:33;;;;;;;8.57;2.42;;;7.20;75.40;;;;;;5033176;28;20368;-68
2021/01/26 01:27:59;;;;;;;11.35;3.38;;;7.20;75.50;;;;;;5048742;28;20032;-69
2021/01/26 01:30:31;;;;;;;7.23;2.83;;;7.10;75.80;;;;;;5023309;28;20467;-68
2021/01/26 01:32:57;;;;;;;9.68;3.22;;;7.00;76.30;;;;;;5042923;28;20083;-68
2021/01/26 01:35:23;;;;;;;9.65;3.47;;;7.00;76.80;;;;;;5043767;28;20042;-68
2021/01/26 01:37:49;;;;;;;8.60;2.93;;;7.00;77.20;;;;;;5051298;28;20033;-68
2021/01/26 01:40:34;;;;;;;9.90;3.63;;;6.90;77.60;;;;;;5050845;28;20533;-68
2021/01/26 01:43:00;;;;;;;9.73;3.33;;;6.90;77.90;;;;;;5050439;28;20036;-68
2021/01/26 01:45:28;;;;;;;11.30;3.43;;;7.00;78.10;;;;;;5050901;28;20025;-68
2021/01/26 01:48:08;;;;;;;9.60;3.38;;;7.00;78.00;;;;;;5050962;28;20029;-68
2021/01/26 01:50:42;;;;;;;9.67;2.37;;;7.00;77.80;;;;;;5040774;28;20032;-68
2021/01/26 01:53:16;;;;;;;12.73;2.58;;;7.00;77.60;;;;;;5026642;28;20037;-68
2021/01/26 01:55:48;;;;;;;11.27;2.50;;;7.00;77.10;;;;;;5051005;28;20347;-69
2021/01/26 01:58:21;;;;;;;7.82;1.90;;;7.00;77.10;;;;;;5050397;28;20036;-77
2021/01/26 02:00:51;;;;;;;11.47;3.20;;;7.00;77.10;;;;;;5050731;28;20096;-69
2021/01/26 02:03:25;;;;;;;9.50;2.03;;;7.00;76.80;;;;;;5050497;28;20352;-70
2021/01/26 02:05:53;;;;;;;10.37;2.23;;;7.00;76.70;;;;;;5062847;28;20401;-68
2021/01/26 02:08:43;;;;;;;10.13;2.95;;;7.10;76.70;;;;;;5063481;28;20029;-69
2021/01/26 02:11:09;;;;;;;8.93;2.03;;;7.10;76.40;;;;;;5071142;28;20012;-68
2021/01/26 02:13:34;;;;;;;10.65;1.63;;;7.10;76.30;;;;;;5070008;28;20063;-68
2021/01/26 02:16:04;;;;;;;10.37;2.87;;;7.20;76.10;;;;;;5070863;28;20031;-68
2021/01/26 02:18:51;;;;;;;9.40;1.70;;;7.20;75.90;;;;;;5070131;28;20114;-68
2021/01/26 02:21:45;;;;;;;9.20;2.20;;;7.20;75.60;;;;;;5052013;28;20049;-76
2021/01/26 02:24:17;;;;;;;5.17;1.20;;;7.10;75.40;;;;;;5023889;28;20164;-69
2021/01/26 02:27:16;;;;;;;7.15;1.77;;;7.20;75.40;;;;;;5060193;28;20539;-69
2021/01/26 02:30:21;;;;;;;6.70;1.40;;;7.20;75.30;;;;;;5066799;28;20041;-68
2021/01/26 02:33:05;;;;;;;9.80;2.47;;;7.10;75.30;;;;;;5070686;28;20050;-69
2021/01/26 02:35:50;;;;;;;8.27;2.83;;;7.10;75.50;;;;;;5063366;28;20055;-68
2021/01/26 02:38:48;;;;;;;7.80;1.80;;;7.10;75.60;;;;;;5052224;28;20029;-72
2021/01/26 02:41:35;;;;;;;9.73;2.50;;;7.00;75.80;;;;;;5071279;28;20100;-69
2021/01/26 02:44:19;;;;;;;11.57;2.50;;;7.10;75.90;;;;;;5064658;28;20021;-68
2021/01/26 02:46:50;;;;;;;6.57;1.70;;;7.00;76.00;;;;;;5055202;28;20039;-68
2021/01/26 02:49:22;;;;;;;9.30;1.80;;;7.00;76.00;;;;;;5065483;28;20016;-68
2021/01/26 02:51:55;;;;;;;7.50;2.00;;;7.00;76.20;;;;;;5065910;28;20421;-69
2021/01/26 02:54:29;;;;;;;7.18;2.00;;;7.00;76.40;;;;;;5073729;28;20047;-69
2021/01/26 02:57:37;;;;;;;9.90;2.53;;;7.00;76.40;;;;;;5074277;28;20032;-68
2021/01/26 03:00:19;;;;;;;5.97;1.77;;;6.90;76.60;;;;;;5004883;28;20110;-68
2021/01/26 03:03:09;;;;;;;12.50;2.58;;;7.00;76.60;;;;;;5058578;28;20044;-69
2021/01/26 03:05:44;;;;;;;9.40;1.80;;;7.10;76.40;;;;;;5064210;28;20045;-69
2021/01/26 03:08:37;;;;;;;9.38;2.30;;;7.20;76.30;;;;;;5051442;28;20060;-68
2021/01/26 03:11:16;;;;;;;6.95;1.60;;;7.20;76.20;;;;;;5073638;28;20385;-69
2021/01/26 03:13:52;;;;;;;7.68;1.17;;;7.20;76.20;;;;;;5070246;28;20044;-71
2021/01/26 03:16:18;;;;;;;6.07;2.25;;;7.30;76.20;;;;;;5068926;28;20070;-68
2021/01/26 03:18:49;;;;;;;9.33;1.67;;;7.30;76.10;;;;;;5071331;28;20032;-69
2021/01/26 03:21:18;;;;;;;7.77;2.17;;;7.20;76.40;;;;;;5068309;28;20057;-69
2021/01/26 03:24:01;;;;;;;16.73;2.45;;;7.30;76.50;;;;;;5068560;28;20067;-69
2021/01/26 03:26:28;;;;;;;6.28;1.60;;;7.30;76.20;;;;;;5071774;28;20024;-68
2021/01/26 03:28:58;;;;;;;8.98;1.80;;;7.30;75.90;;;;;;5053632;28;20051;-68
2021/01/26 03:31:30;;;;;;;5.47;1.97;;;7.20;75.80;;;;;;5071745;28;20043;-69
2021/01/26 03:33:56;;;;;;;11.90;2.00;;;7.20;75.90;;;;;;5066070;28;20040;-69
2021/01/26 03:36:21;;;;;;;13.47;2.60;;;7.10;76.20;;;;;;5055331;28;20429;-69
2021/01/26 03:38:53;;;;;;;6.27;2.17;;;7.00;76.50;;;;;;5072201;28;20467;-69
2021/01/26 03:41:19;;;;;;;9.70;1.80;;;7.00;76.60;;;;;;5071752;28;20032;-76
2021/01/26 03:43:49;;;;;;;8.03;1.27;;;6.90;76.80;;;;;;5071625;28;20050;-72
2021/01/26 03:46:20;;;;;;;7.30;1.47;;;6.90;77.00;;;;;;5048469;28;20063;-68
2021/01/26 03:49:13;;;;;;;8.67;1.77;;;6.90;77.00;;;;;;5069798;28;20123;-68
2021/01/26 03:51:52;;;;;;;5.82;1.25;;;6.90;77.00;;;;;;5063502;28;20412;-69
2021/01/26 03:54:35;;;;;;;5.83;1.30;;;6.90;77.00;;;;;;5052630;28;20067;-69
2021/01/26 03:57:00;;;;;;;8.40;1.90;;;6.90;77.10;;;;;;5054948;28;20033;-68
2021/01/26 03:59:51;;;;;;;11.70;1.98;;;6.90;77.30;;;;;;5062819;28;20466;-68
2021/01/26 04:02:23;;;;;;;9.75;2.88;;;7.00;77.40;;;;;;5072475;28;20082;-68
2021/01/26 04:05:11;;;;;;;8.33;2.03;;;6.90;77.30;;;;;;5061887;28;20131;-69
2021/01/26 04:07:42;;;;;;;8.73;2.00;;;7.00;77.10;;;;;;5041403;28;20483;-69
2021/01/26 04:10:16;;;;;;;10.87;2.00;;;7.00;77.20;;;;;;5052410;28;20029;-68
2021/01/26 04:12:45;;;;;;;8.47;2.13;;;7.00;76.90;;;;;;5015168;28;20072;-68
2021/01/26 04:15:18;;;;;;;10.63;2.20;;;7.00;76.90;;;;;;5042474;28;20110;-69
2021/01/26 04:17:49;;;;;;;10.55;2.08;;;7.00;77.00;;;;;;5039268;28;20518;-69
2021/01/26 04:20:27;;;;;;;8.23;1.70;;;7.00;76.90;;;;;;5046149;28;20024;-69
2021/01/26 04:22:55;;;;;;;11.03;1.97;;;7.00;76.90;;;;;;5045934;28;20032;-68
2021/01/26 04:25:35;;;;;;;7.63;2.07;;;7.00;77.10;;;;;;5042237;28;20033;-71
2021/01/26 04:28:03;;;;;;;7.93;1.63;;;7.10;77.30;;;;;;5051319;28;20036;-68
2021/01/26 04:30:29;;;;;;;7.07;1.80;;;7.10;77.40;;;;;;5050193;28;20440;-69
2021/01/26 04:33:06;;;;;;;14.27;2.73;;;7.10;77.60;;;;;;5041599;28;20044;-68
2021/01/26 04:35:32;;;;;;;12.17;1.73;;;7.10;77.60;;;;;;5044214;28;20382;-68
2021/01/26 04:37:58;;;;;;;11.47;1.77;;;7.10;77.70;;;;;;5052031;28;20482;-68
2021/01/26 04:40:26;;;;;;;9.77;2.37;;;7.10;77.90;;;;;;5041053;28;20029;-69
2021/01/26 04:43:02;;;;;;;6.17;1.97;;;7.00;78.00;;;;;;5028919;28;20033;-70
2021/01/26 04:45:42;;;;;;;20.23;2.45;;;7.10;78.10;;;;;;5047339;28;20043;-69
2021/01/26 04:48:25;;;;;;;9.90;2.28;;;7.10;78.20;;;;;;5051979;28;20021;-69
2021/01/26 04:50:58;;;;;;;8.73;1.60;;;7.10;78.10;;;;;;5024566;28;20147;-69
2021/01/26 04:53:55;;;;;;;12.93;2.22;;;7.20;77.90;;;;;;5047812;28;20064;-70
2021/01/26 04:56:23;;;;;;;13.50;2.60;;;7.30;77.70;;;;;;5048150;28;20028;-69
2021/01/26 04:58:54;;;;;;;7.32;2.50;;;7.30;77.50;;;;;;5051215;28;20475;-69
2021/01/26 05:01:41;;;;;;;9.23;1.93;;;7.30;77.30;;;;;;5045862;28;20490;-68
2021/01/26 05:04:21;;;;;;;9.70;2.00;;;7.30;77.40;;;;;;5030636;28;20053;-69
2021/01/26 05:07:01;;;;;;;10.20;2.03;;;7.30;77.40;;;;;;5032710;28;20037;-69
2021/01/26 05:09:33;;;;;;;12.50;2.40;;;7.20;77.40;;;;;;5051933;28;20112;-69
2021/01/26 05:12:02;;;;;;;10.13;1.97;;;7.30;77.60;;;;;;5051928;28;20045;-68
2021/01/26 05:14:39;;;;;;;13.43;2.57;;;7.30;77.60;;;;;;5049165;28;20024;-69
2021/01/26 05:17:10;;;;;;;12.70;2.60;;;7.40;77.60;;;;;;5026272;28;20382;-69
2021/01/26 05:20:01;;;;;;;13.65;2.10;;;7.40;77.60;;;;;;5050098;28;20021;-69
2021/01/26 05:22:33;;;;;;;15.23;2.33;;;7.40;77.40;;;;;;5050658;28;20025;-69
2021/01/26 05:25:06;;;;;;;12.80;2.40;;;7.40;77.40;;;;;;5051192;28;20053;-68
2021/01/26 05:27:32;;;;;;;8.45;2.20;;;7.50;77.40;;;;;;5051364;28;20016;-69
2021/01/26 05:29:59;;;;;;;10.63;2.08;;;7.50;77.40;;;;;;5051695;28;20120;-69
2021/01/26 05:32:26;;;;;;;12.80;2.37;;;7.60;77.60;;;;;;5044611;28;20033;-71
2021/01/26 05:34:53;;;;;;;9.77;2.45;;;7.60;77.70;;;;;;5039494;28;20422;-69
2021/01/26 05:37:20;;;;;;;9.60;2.03;;;7.60;77.60;;;;;;5030873;28;20037;-68
2021/01/26 05:40:10;;;;;;;10.43;1.83;;;7.60;77.70;;;;;;5039322;28;20447;-69
2021/01/26 05:42:36;;;;;;;9.20;1.50;;;7.60;77.70;;;;;;5038583;28;20430;-69
2021/01/26 05:45:09;;;;;;;13.38;2.83;;;7.60;77.70;;;;;;5050948;28;20178;-69
2021/01/26 05:47:38;;;;;;;7.63;2.10;;;7.70;77.70;;;;;;5050186;28;20071;-68
2021/01/26 05:50:20;;;;;;;19.40;3.88;;;7.70;77.40;;;;;;5029562;28;20602;-74
2021/01/26 05:52:46;;;;;;;8.45;2.35;;;7.80;77.20;;;;;;5032647;28;20030;-74
2021/01/26 05:55:27;;;;;;;9.80;2.23;;;7.70;77.30;;;;;;5031313;28;20048;-69
2021/01/26 05:57:53;;;;;;;11.30;2.33;;;7.60;77.60;;;;;;5031905;28;20025;-68
2021/01/26 06:00:21;;;;;;;17.42;2.58;;;7.60;77.70;;;;;;5047986;28;20133;-69
2021/01/26 06:02:47;;;;;;;7.00;2.47;;;7.60;77.60;;;;;;5031574;28;20060;-68
2021/01/26 06:05:21;;;;;;;15.30;2.70;;;7.60;77.60;;;;;;5035221;28;20506;-68
2021/01/26 06:08:12;;;;;;;7.68;1.70;;;7.60;77.70;;;;;;5014882;28;20032;-73
2021/01/26 06:10:40;;;;;;;6.72;2.40;;;7.60;77.70;;;;;;5048733;28;20026;-69
2021/01/26 06:13:06;;;;;;;11.80;2.17;;;7.60;77.80;;;;;;5031224;28;20018;-68
2021/01/26 06:15:36;;;;;;;5.50;1.73;;;7.60;77.60;;;;;;5014792;28;20033;-69
2021/01/26 06:18:12;;;;;;;13.02;2.13;;;7.60;77.40;;;;;;5034714;28;20120;-69
2021/01/26 06:20:38;;;;;;;8.00;2.17;;;7.60;77.40;;;;;;5038729;28;20029;-68
2021/01/26 06:23:19;;;;;;;12.77;2.58;;;7.60;77.50;;;;;;5029183;28;20383;-68
2021/01/26 06:25:51;;;;;;;8.50;1.60;;;7.60;77.40;;;;;;5048286;28;20048;-68
2021/01/26 06:28:32;;;;;;;12.80;2.70;;;7.60;77.50;;;;;;5017223;28;20360;-68
2021/01/26 06:31:08;;;;;;;9.52;2.17;;;7.60;77.40;;;;;;5034520;28;20025;-68
2021/01/26 06:33:46;;;;;;;6.05;2.15;;;7.50;77.60;;;;;;5038921;28;20032;-75
2021/01/26 06:36:36;;;;;;;12.20;2.33;;;7.50;77.90;;;;;;5045803;28;20026;-68
2021/01/26 06:39:07;;;;;;;6.43;1.67;;;7.50;78.20;;;;;;5055299;28;20113;-68
2021/01/26 06:41:39;;;;;;;14.88;3.50;;;7.50;78.30;;;;;;5048962;28;20029;-68
2021/01/26 06:44:41;;;;;;;11.83;1.90;;;7.50;78.40;;;;;;5022614;28;20048;-68
2021/01/26 06:47:30;;;;;;;8.80;1.97;;;7.50;78.30;;;;;;5046911;28;20044;-68
2021/01/26 06:50:11;;;;;;;11.87;2.33;;;7.50;78.30;;;;;;5051745;28;20021;-68
2021/01/26 06:52:54;;;;;;;8.88;1.90;;;7.60;78.30;;;;;;5039236;28;20459;-68
2021/01/26 06:56:02;;;;;;;8.95;2.15;;;7.60;78.30;;;;;;5048715;28;20053;-68
2021/01/26 06:58:56;;;;;;;7.00;1.52;;;7.50;78.20;;;;;;5021634;28;20041;-68
2021/01/26 07:01:40;;;;;;;6.22;1.70;;;7.50;78.50;;;;;;5038661;28;20037;-70
2021/01/26 07:04:30;;;;;;;8.65;2.45;;;7.50;78.60;;;;;;5037882;28;20049;-68
2021/01/26 07:07:33;;;;;;;9.35;2.35;;;7.60;78.50;;;;;;5044276;28;20052;-68
2021/01/26 07:10:02;;;;;;;13.30;2.33;;;7.50;78.50;;;;;;5043223;28;20447;-68
2021/01/26 07:12:36;;;;;;;10.83;2.70;;;7.60;78.60;;;;;;5032972;28;20029;-69
2021/01/26 07:15:23;;;;;;;10.07;2.10;;;7.60;78.60;;;;;;5046372;28;20086;-68
2021/01/26 07:17:58;;;;;;;7.53;1.93;;;7.60;78.70;;;;;;5035499;28;20562;-68
2021/01/26 07:21:01;;;;;;;5.72;1.70;;;7.50;78.80;;;;;;5041189;28;20044;-68
2021/01/26 07:23:41;;;;;;;10.67;2.57;;;7.60;78.90;;;;;;5040195;28;20484;-70
2021/01/26 07:26:21;;;;;;;8.23;1.67;;;7.60;78.80;;;;;;5045266;28;20501;-70
2021/01/26 07:29:15;;;;;;;7.32;2.13;;;7.60;78.90;;;;;;5050266;28;20021;-68
2021/01/26 07:31:45;;;;;;;;;;;7.50;79.50;;;;;;5039921;28;20087;-68
2021/01/26 07:34:29;;;;;;;9.13;2.50;;;7.60;78.70;;;;;;5047634;28;19948;-71
2021/01/26 07:37:02;;;;;;;11.37;2.27;;;7.60;78.80;;;;;;5049499;28;20118;-69
2021/01/26 07:40:10;;;;;;;5.00;1.80;;;7.60;79.00;;;;;;5047452;28;20120;-68
2021/01/26 07:42:50;;;;;;;10.07;2.03;;;7.60;79.10;;;;;;5022441;28;20051;-68
2021/01/26 07:45:42;;;;;;;6.40;1.90;;;7.60;79.00;;;;;;5033300;28;20025;-76
2021/01/26 07:48:14;;;;;;;5.28;1.65;;;7.70;78.80;;;;;;5035791;28;20102;-69
2021/01/26 07:50:54;;;;;;;5.78;1.65;;;7.70;78.70;;;;;;5047487;28;20025;-68
2021/01/26 07:53:32;;;;;;;9.82;1.60;;;7.70;78.60;;;;;;5048501;28;20063;-73
2021/01/26 07:56:20;;;;;;;7.93;1.80;;;7.60;78.60;;;;;;5046524;28;20036;-68
2021/01/26 07:58:47;;;;;;;10.23;1.67;;;7.60;78.60;;;;;;5013579;28;20041;-73
2021/01/26 08:01:15;;;;;;;5.47;1.77;;;7.60;78.40;;;;;;5042998;28;20056;-72
2021/01/26 08:03:41;;;;;;;6.55;1.55;;;7.60;78.40;;;;;;5037702;28;20498;-68
2021/01/26 08:06:36;;;;;;;8.73;1.67;;;7.60;78.40;;;;;;5042192;28;20029;-68
2021/01/26 08:09:12;;;;;;;4.03;1.37;;;7.60;78.30;;;;;;5045204;28;20734;-68
2021/01/26 08:12:03;;;;;;;4.27;1.50;;;7.60;78.20;;;;;;5041361;28;20017;-75
2021/01/26 08:14:50;;;;;;;7.28;2.10;;;7.60;78.10;;;;;;5050711;28;20029;-68
2021/01/26 08:17:37;;;;;;;5.30;1.40;;;7.60;78.00;;;;;;5049225;28;20068;-67
2021/01/26 08:20:25;;;;;;;6.95;1.90;;;7.60;77.90;;;;;;5035972;28;20116;-71
2021/01/26 08:22:56;;;;;;;7.55;2.38;;;7.60;77.90;;;;;;5035915;28;20021;-68
2021/01/26 08:25:36;;;;;;;9.85;1.63;;;7.70;77.80;;;;;;5049679;28;20035;-71
2021/01/26 08:28:30;;;;;;;8.40;3.03;;;7.80;77.60;;;;;;5047583;28;20029;-69
2021/01/26 08:30:57;;;;;;;7.80;1.90;;;7.80;77.30;;;;;;5047397;28;20028;-73
2021/01/26 08:33:29;;;;;;;5.22;1.65;;;7.90;77.20;;;;;;5042856;28;20108;-76
2021/01/26 08:36:08;;;;;;;7.50;2.10;;;8.00;76.70;;;;;;5042408;28;20045;-74
2021/01/26 08:38:51;;;;;;;7.10;1.50;;;8.10;76.50;;;;;;5037287;28;20025;-68
2021/01/26 08:41:42;;;;;;;3.43;1.20;;;8.60;77.70;;;;;;5045925;28;20110;-68
2021/01/26 08:44:29;;;;;;;5.28;1.88;;;10.20;74.60;;;;;;5015951;28;20050;-74
2021/01/26 08:46:56;;;;;;;2.53;1.60;;;11.20;69.70;;;;;;5027881;28;20053;-68
2021/01/26 08:49:27;;;;;;;5.35;1.80;;;11.10;67.50;;;;;;5012523;28;20116;-69
2021/01/26 08:51:55;;;;;;;8.00;2.20;;;10.70;67.20;;;;;;5043175;28;20025;-73
2021/01/26 08:54:41;;;;;;;4.15;1.45;;;10.40;67.90;;;;;;5048008;28;20048;-68
2021/01/26 08:57:40;;;;;;;6.50;1.70;;;10.00;68.60;;;;;;5040592;28;20152;-68
2021/01/26 09:00:15;;;;;;;3.90;1.42;;;9.60;69.70;;;;;;5041070;28;20036;-70
2021/01/26 09:02:49;;;;;;;2.95;1.17;;;9.30;70.70;;;;;;5045604;28;20029;-70
2021/01/26 09:05:35;;;;;;;3.15;1.33;;;9.20;71.40;;;;;;5035232;28;20477;-71
2021/01/26 09:08:07;;;;;;;3.40;1.50;;;9.00;72.00;;;;;;4998745;28;20045;-69
2021/01/26 09:10:39;;;;;;;2.97;1.25;;;9.00;72.40;;;;;;5013497;28;20022;-69
2021/01/26 09:13:25;;;;;;;6.00;2.25;;;9.90;73.10;;;;;;5013669;28;20030;-69
2021/01/26 09:15:54;;;;;;;4.43;1.50;;;9.00;72.60;;;;;;5040757;28;20052;-69
2021/01/26 09:18:23;;;;;;;4.07;1.30;;;9.00;72.80;;;;;;5028790;28;20384;-75
2021/01/26 09:21:01;;;;;;;5.88;1.50;;;9.00;72.90;;;;;;5038885;28;20033;-70
2021/01/26 09:23:29;;;;;;;5.28;1.40;;;9.00;72.80;;;;;;5048098;28;20024;-75
2021/01/26 09:25:55;;;;;;;6.60;1.83;;;8.90;72.60;;;;;;5030814;28;20071;-77
2021/01/26 09:28:22;;;;;;;7.20;1.95;;;8.90;72.80;;;;;;5030605;28;20076;-73
2021/01/26 09:30:57;;;;;;;5.80;2.22;;;9.00;72.80;;;;;;5022857;28;20025;-78
2021/01/26 09:33:26;;;;;;;7.00;1.80;;;9.00;72.90;;;;;;5049934;28;20104;-72
2021/01/26 09:36:01;;;;;;;3.58;1.30;;;9.10;72.50;;;;;;5048780;28;20036;-69
2021/01/26 09:38:33;;;;;;;5.22;1.63;;;9.10;72.70;;;;;;5043180;28;20029;-69
2021/01/26 09:41:22;;;;;;;6.10;1.67;;;9.20;72.40;;;;;;5029824;28;20025;-70
2021/01/26 09:44:08;;;;;;;3.70;1.48;;;9.20;72.10;;;;;;5032729;28;20044;-68
2021/01/26 09:46:41;;;;;;;4.00;1.30;;;9.20;72.20;;;;;;5050323;28;20013;-68
2021/01/26 09:49:27;;;;;;;8.35;1.50;;;9.20;72.30;;;;;;5016161;28;20123;-67
2021/01/26 09:52:07;;;;;;;5.03;1.60;;;9.20;72.50;;;;;;5045501;28;20431;-67
2021/01/26 09:54:39;;;;;;;5.05;2.10;;;9.30;72.30;;;;;;5037555;28;20451;-68
2021/01/26 09:57:07;;;;;;;7.68;2.35;;;9.20;71.90;;;;;;5041168;28;20120;-67
2021/01/26 09:59:36;;;;;;;5.43;1.50;;;9.20;72.00;;;;;;5039850;28;20083;-67
2021/01/26 10:02:05;;;;;;;4.30;1.45;;;9.20;72.00;;;;;;5038702;28;20071;-67
2021/01/26 10:04:36;;;;;;;5.38;1.80;;;9.20;71.80;;;;;;5065909;28;20064;-69
2021/01/26 10:07:06;;;;;;;5.97;2.13;;;9.20;72.00;;;;;;5058597;28;20556;-67
2021/01/26 10:09:34;;;;;;;7.93;2.35;;;9.20;71.80;;;;;;5081162;28;20047;-67
2021/01/26 10:12:17;;;;;;;6.15;2.40;;;9.20;72.10;;;;;;5068554;28;20032;-67
2021/01/26 10:15:11;;;;;;;6.43;1.83;;;9.30;71.90;;;;;;5069287;28;20162;-69
2021/01/26 10:17:47;;;;;;;5.90;1.65;;;9.30;71.90;;;;;;5056295;28;20113;-70
2021/01/26 10:20:19;;;;;;;4.90;1.60;;;9.30;71.60;;;;;;5053515;28;20099;-67
2021/01/26 10:22:45;;;;;;;4.40;1.50;;;9.30;71.70;;;;;;5058041;28;20112;-67
2021/01/26 10:25:12;;;;;;;9.88;2.88;;;9.40;71.70;;;;;;5071495;28;20036;-70
2021/01/26 10:27:38;;;;;;;6.88;1.98;;;9.50;71.40;;;;;;5062073;28;20028;-68
2021/01/26 10:30:16;;;;;;;7.53;1.77;;;9.50;71.10;;;;;;5054361;28;20039;-75
2021/01/26 10:32:52;;;;;;;6.88;1.55;;;9.60;71.10;;;;;;5065369;28;20028;-71
2021/01/26 10:35:39;;;;;;;6.18;2.28;;;9.70;70.90;;;;;;5061011;28;20070;-66
2021/01/26 10:38:31;;;;;;;7.22;2.10;;;9.80;70.50;;;;;;5073295;28;20135;-73
2021/01/26 10:41:26;;;;;;;6.35;2.20;;;9.80;70.10;;;;;;5070758;28;20119;-67
2021/01/26 10:44:07;;;;;;;4.88;1.60;;;9.80;69.70;;;;;;5059209;28;20028;-67
2021/01/26 10:46:42;;;;;;;4.40;1.50;;;9.80;69.60;;;;;;5058112;28;20033;-67
2021/01/26 10:49:17;;;;;;;4.50;1.92;;;9.90;70.00;;;;;;5057002;28;20055;-67
2021/01/26 10:51:45;;;;;;;4.85;1.65;;;10.10;69.80;;;;;;5068890;28;20434;-67
2021/01/26 10:54:10;;;;;;;7.40;2.20;;;10.20;69.20;;;;;;5060446;28;20100;-67
2021/01/26 10:56:36;;;;;;;7.50;1.80;;;10.20;68.10;;;;;;5052150;28;20112;-67
2021/01/26 10:59:03;;;;;;;5.88;2.72;;;10.20;68.40;;;;;;5069070;28;20461;-66
2021/01/26 11:01:29;;;;;;;7.57;2.22;;;10.30;67.80;;;;;;5064015;28;20033;-69
2021/01/26 11:03:55;;;;;;;6.05;1.88;;;10.30;67.80;;;;;;5075396;28;20048;-66
2021/01/26 11:06:22;;;;;;;4.25;1.60;;;10.40;67.90;;;;;;5037283;28;20069;-66
2021/01/26 11:08:49;;;;;;;6.68;1.98;;;10.40;67.70;;;;;;5037135;28;20364;-69
2021/01/26 11:11:21;;;;;;;8.48;2.33;;;10.50;67.20;;;;;;5047508;28;20044;-67
2021/01/26 11:13:47;;;;;;;9.45;1.70;;;10.50;66.40;;;;;;5049367;28;20036;-68
2021/01/26 11:16:13;;;;;;;9.90;3.55;;;10.40;66.90;;;;;;5012878;28;20037;-67
2021/01/26 11:18:39;;;;;;;7.57;2.08;;;10.40;66.80;;;;;;5035616;28;20036;-68
2021/01/26 11:21:04;;;;;;;6.38;1.77;;;10.40;66.70;;;;;;5044771;28;20387;-69
2021/01/26 11:23:30;;;;;;;6.45;2.00;;;10.50;66.80;;;;;;5050597;28;20051;-68
2021/01/26 11:25:56;;;;;;;7.03;2.13;;;10.50;66.80;;;;;;5052810;28;20056;-68
2021/01/26 11:28:22;;;;;;;6.80;1.92;;;10.50;65.70;;;;;;5024250;28;20040;-67
2021/01/26 11:30:48;;;;;;;7.72;1.75;;;10.40;65.70;;;;;;5043779;28;20053;-71
2021/01/26 11:33:14;;;;;;;6.22;2.15;;;10.40;66.50;;;;;;5017753;28;20060;-69
2021/01/26 11:35:39;;;;;;;5.13;1.50;;;10.40;66.50;;;;;;5022709;28;20037;-68
2021/01/26 11:38:05;;;;;;;9.77;2.22;;;10.40;65.80;;;;;;5043294;28;20040;-70
2021/01/26 11:40:31;;;;;;;8.35;1.92;;;10.30;66.10;;;;;;5036016;28;20171;-67
2021/01/26 11:42:57;;;;;;;9.23;2.28;;;10.30;65.90;;;;;;5022288;28;20078;-68
2021/01/26 11:45:27;;;;;;;5.00;1.67;;;10.30;66.30;;;;;;5034751;28;20045;-68
2021/01/26 11:47:52;;;;;;;12.07;2.83;;;10.40;66.50;;;;;;5042294;28;20032;-68
2021/01/26 11:50:19;;;;;;;10.68;2.22;;;10.50;65.90;;;;;;5033145;28;20029;-67
2021/01/26 11:52:45;;;;;;;10.52;2.38;;;10.60;65.50;;;;;;5026339;28;20341;-68
2021/01/26 11:55:16;;;;;;;4.32;2.08;;;10.50;64.90;;;;;;5019402;28;20029;-67
2021/01/26 11:57:42;;;;;;;7.93;2.38;;;10.60;65.50;;;;;;5051817;28;20029;-68
2021/01/26 12:00:09;;;;;;;5.32;1.98;;;10.50;64.40;;;;;;5033069;28;20123;-68
2021/01/26 12:02:35;;;;;;;9.63;2.08;;;10.40;65.40;;;;;;5016917;28;20029;-68
2021/01/26 12:05:03;;;;;;;9.98;2.22;;;10.50;65.20;;;;;;5059449;28;20052;-68
2021/01/26 12:07:28;;;;;;;21.08;3.70;;;10.50;64.90;;;;;;5081110;28;20448;-68
2021/01/26 12:09:54;;;;;;;8.95;3.13;;;10.50;64.80;;;;;;5065630;28;20119;-68
2021/01/26 12:12:19;;;;;;;7.00;2.50;;;11.10;65.10;;;;;;5088784;28;20039;-68
2021/01/26 12:14:46;;;;;;;8.20;1.83;;;10.30;65.00;;;;;;5050463;28;20033;-71
2021/01/26 12:17:11;;;;;;;9.13;2.45;;;10.30;65.30;;;;;;5056963;28;20032;-68
2021/01/26 12:19:37;;;;;;;5.63;2.08;;;10.30;65.50;;;;;;5054050;28;20082;-68
2021/01/26 12:22:02;;;;;;;7.13;2.30;;;10.40;65.60;;;;;;5055107;28;20114;-68
2021/01/26 12:24:28;;;;;;;7.40;1.67;;;10.50;65.40;;;;;;5053806;28;20390;-68
2021/01/26 12:26:55;;;;;;;7.20;2.33;;;10.50;64.80;;;;;;5071678;28;20032;-70
2021/01/26 12:29:21;;;;;;;8.80;2.80;;;10.50;64.80;;;;;;5070894;28;20035;-68
2021/01/26 12:31:46;;;;;;;5.00;1.98;;;10.50;64.40;;;;;;5082674;28;20107;-68
2021/01/26 12:34:13;;;;;;;6.90;2.20;;;10.40;64.40;;;;;;5061679;28;20112;-68
2021/01/26 12:36:39;;;;;;;15.73;2.55;;;10.40;64.60;;;;;;5069369;28;20119;-72
2021/01/26 12:39:05;;;;;;;12.95;2.95;;;10.50;65.00;;;;;;5065811;28;20044;-68
2021/01/26 12:41:31;;;;;;;11.27;5.15;;;10.50;65.00;;;;;;5070087;28;20391;-68
2021/01/26 12:43:59;;;;;;;10.40;4.90;;;10.40;64.60;;;;;;5069832;28;20040;-68
2021/01/26 12:46:25;;;;;;;9.85;3.55;;;10.40;65.00;;;;;;5049538;28;20032;-68
2021/01/26 12:48:52;;;;;;;10.07;2.67;;;10.40;65.10;;;;;;5048398;28;20425;-78
2021/01/26 12:51:20;;;;;;;7.90;2.42;;;10.30;64.90;;;;;;5061884;28;20036;-69
2021/01/26 12:53:46;;;;;;;7.80;2.35;;;10.30;65.00;;;;;;5081260;28;20035;-67
2021/01/26 12:56:12;;;;;;;7.18;2.28;;;10.30;64.90;;;;;;5050558;28;20037;-67
2021/01/26 12:58:37;;;;;;;4.53;1.50;;;10.30;65.00;;;;;;5060127;28;20033;-66
2021/01/26 13:01:03;;;;;;;13.18;3.13;;;10.40;65.00;;;;;;5058395;28;20033;-71
2021/01/26 13:03:29;;;;;;;7.25;2.20;;;10.50;65.10;;;;;;5055297;28;20116;-70
2021/01/26 13:05:55;;;;;;;7.20;2.95;;;10.50;65.20;;;;;;5061934;28;20078;-69
2021/01/26 13:08:20;;;;;;;9.10;1.90;;;10.60;65.40;;;;;;5070466;28;20028;-76
2021/01/26 13:10:46;;;;;;;8.93;2.53;;;10.60;65.40;;;;;;5071074;28;20028;-69
2021/01/26 13:13:12;;;;;;;6.53;2.42;;;10.50;65.60;;;;;;5068375;28;20387;-79
2021/01/26 13:15:37;;;;;;;6.47;2.53;;;10.50;65.00;;;;;;5069439;28;20047;-69
2021/01/26 13:18:03;;;;;;;7.95;2.25;;;10.30;65.20;;;;;;5068929;28;20043;-73
2021/01/26 13:20:29;;;;;;;14.68;2.97;;;10.30;65.20;;;;;;5068124;28;20528;-70
2021/01/26 13:22:55;;;;;;;7.10;1.75;;;10.30;65.30;;;;;;5069520;28;20136;-71
2021/01/26 13:25:24;;;;;;;8.45;2.20;;;10.30;65.50;;;;;;5065036;28;20040;-69